Airfield :
LOGIN :

Register | Disclaimer

   EN    FR    IT 

 










Legend :    VFR   Marginal VFR   IFR   Intensive IFR   Very Intensive IFR
Visi :
Ceiling :
>= 8 km
>= 3000ft
5 to 8 km
1000 to 3000 ft
1500m to 5 km
500 to 1000 ft
800 to 1500m
200 to 500 ft
< 800m
< 200 ft
Symbols :   Thunderstorms  Fog  Heavy snow  Heavy precipitations  Wind > 20 kt
SIGMETs :     Misc.  Thunderstorms  Icing  Turbulence  Mountain Waves  Volcanic Ashes






- Airport Elevation : 97 ft
- IATA code : EBJ


EKEB - Esbjerg

CURRENT METAR :
  • 152020Z AUTO 06009G21KT 030V100 9999 OVC007/// 08/07 Q1007

EXPIRED METARs :
  • 151950Z AUTO 06011KT 7000 OVC007/// 08/07 Q1007
  • 151920Z AUTO 05011KT 3500 -RA BR OVC007/// 08/07 Q1007
  • 151850Z AUTO 06011KT 8000 OVC009/// 08/07 Q1007
  • 151820Z AUTO 06011G21KT 020V090 9999 OVC007/// 08/07 Q1007
  • 151750Z AUTO 06011KT 7000 OVC009/// 08/06 Q1008

TAF TAF EKEB
Valid from the 15 at 18:00 until the 15 at 23:00 UTC


151725Z 1518/1523 06010KT 9999 BKN012
BECMG 1518/1520 BKN008
TEMPO 1520/1523 2000 -RADZ BR SCT004 BKN010



MET'MAP, your aeronautical weather chart ! - Copyright ORBIFLY December 2007 - Disclaimer

ORBIFLY MET'MAP TEAM :

Programming & Development : Alexandra Zaïnal
Concept & Development : Baudouin d'Aumeries
Co-Development & Prog : Marc-Olivier Méhu
Technical & hardware support : Manuel Goepfert

Contact : metmap@orbifly.com




SOURCES & CREDITS :

   NOAA